CTSO2: Bird Creek At Catoosa

                                SHEF ID:       CTSO2     Bird Ck at State Highway 266 nea
STATION TYPE:
Regulating: Stage = 26.00, Flow = 20953

STAGE STAGE(2) RIV-FLOW WTR-TEMP DIS-OXY PH CONDUCT BAT-LOAD
ft ft cfs F mg/l su umho/cm volt
Ccp-Rev Ccp-Rev Ccp-Rev Ccp-Rev Ccp-Rev Ccp-Rev Ccp-Rev Ccp-Rev
(America/Chicago)
04/28 00:00 5.51 3.42 668 72.14 7.24 7.84 336 12.23
04/28 01:00 5.49 3.42 657 71.87 7.24 7.82 342 12.13
04/28 02:00 5.46 3.42 642 71.67 7.24 7.82 344 12.07
04/28 03:00 5.42 3.42 621 71.55 7.22 7.80 345 12.02
04/28 04:00 5.41 3.42 616 71.40 7.21 7.80 346 12.04
04/28 05:00 5.38 3.42 601 71.31 7.18 7.80 339 12.06
04/28 06:00 5.36 3.42 591 71.26 7.10 7.86 336 12.06
04/28 07:00 5.34 3.42 581 71.26 7.18 7.86 340 11.98
04/28 08:00 5.32 3.42 571 71.26 7.15 7.85 340 12.27
04/28 09:00 5.29 3.42 557 71.26 7.12 7.88 340 12.57
04/28 10:00 5.29 3.42 557 71.29 7.13 7.86 329 12.93
04/28 11:00 5.30 3.42 562 71.40 7.13 7.86 337 12.77
04/28 12:00 5.28 3.42 552 71.38 7.19 7.84 340 12.90
04/28 13:00 5.29 3.42 557 71.51 7.18 7.84 344 12.96
04/28 14:00 5.29 3.42 557 71.60 7.21 7.86 351 13.03
04/28 15:00 5.27 3.42 547 71.62 7.25 7.86 356 12.46
04/28 16:00 5.28 3.42 552 71.58 7.21 7.84 361 12.70
04/28 17:00 5.28 3.42 552 71.56 7.26 7.86 363 12.81
04/28 18:00 5.28 3.43 552 71.49 7.25 7.86 375 12.66
04/28 19:00 5.31 3.42 566 71.29 7.27 7.81 378 12.79
04/28 20:00 5.35 3.42 586 71.26 7.27 7.80 379 12.35
04/28 21:00 5.37 3.42 596 71.20 7.32 7.81 376 12.09
04/28 22:00 5.43 3.42 626 71.17 7.28 7.81 374 12.04
04/28 23:00 ---- ---- ---- ---- ---- ---- ---- ----
Data processed at Wed 29Apr2026 04:21 GMT

NOTICE: If you are parsing this page

Please convert to using our Data API. Starting early 2026 we will be migrating to: https://water.usace.army.mil with modern pages rendered in JavaScript. When this migration completes you will no longer be able to scrape this page! CWMSDataAPI (CDA)

Timeseries IDs (TSIDs)

TSIDs used from left to right in the data table
CATB.Stage.Inst.1Hour.0.Ccp-Rev
CATB.Stage-Alt.Inst.1Hour.0.Ccp-Rev
CATB.Flow.Inst.1Hour.0.Ccp-Rev
CATB.Temp-Water.Inst.1Hour.0.Ccp-Rev
CATB.Conc-DO.Inst.1Hour.0.Ccp-Rev
CATB.pH.Inst.1Hour.0.Ccp-Rev
CATB.Cond-Water.Inst.1Hour.0.Ccp-Rev
CATB.Volt-Battery Load.Inst.1Hour.0.Ccp-Rev

                            

All information presented herein is the property of the government of the United States of America and may be revised or deleted at any time without prior notice. Dissemination of this information without the expressed written consent of the Public Affairs Office, Tulsa District U.S. Army Corps of Engineers is strictly prohibited. These data are gathered electronically and, as presented, have NOT undergone any form of quality control. These data are NOT guaranteed to be valid or correct.